sensor_id;sensor_type;location;lat;lon;timestamp;pressure;altitude;pressure_sealevel;temperature;humidity
73981;BME280;62348;51.412;5.436;2023-05-23T00:02:05;101722.88;;;14.62;88.42
73981;BME280;62348;51.412;5.436;2023-05-23T00:04:33;101723.72;;;14.68;88.03
73981;BME280;62348;51.412;5.436;2023-05-23T00:07:00;101725.63;;;14.67;88.39
73981;BME280;62348;51.412;5.436;2023-05-23T00:09:25;101723.16;;;14.66;88.04
73981;BME280;62348;51.412;5.436;2023-05-23T00:11:50;101730.25;;;14.67;88.30
73981;BME280;62348;51.412;5.436;2023-05-23T00:14:16;101727.53;;;14.67;88.31
73981;BME280;62348;51.412;5.436;2023-05-23T00:16:42;101728.06;;;14.63;88.70
73981;BME280;62348;51.412;5.436;2023-05-23T00:19:10;101731.59;;;14.59;88.78
73981;BME280;62348;51.412;5.436;2023-05-23T00:21:36;101741.66;;;14.58;88.64
73981;BME280;62348;51.412;5.436;2023-05-23T00:24:01;101734.56;;;14.57;88.86
73981;BME280;62348;51.412;5.436;2023-05-23T00:26:27;101743.50;;;14.53;89.01
73981;BME280;62348;51.412;5.436;2023-05-23T00:28:56;101744.34;;;14.53;88.94
73981;BME280;62348;51.412;5.436;2023-05-23T00:31:21;101749.78;;;14.53;88.82
73981;BME280;62348;51.412;5.436;2023-05-23T00:33:47;101744.31;;;14.48;88.80
73981;BME280;62348;51.412;5.436;2023-05-23T00:36:12;101744.00;;;14.44;89.01
73981;BME280;62348;51.412;5.436;2023-05-23T00:38:38;101741.56;;;14.48;88.96
73981;BME280;62348;51.412;5.436;2023-05-23T00:41:07;101746.47;;;14.51;88.90
73981;BME280;62348;51.412;5.436;2023-05-23T00:43:32;101747.56;;;14.50;88.71
73981;BME280;62348;51.412;5.436;2023-05-23T00:45:59;101739.69;;;14.54;88.75
73981;BME280;62348;51.412;5.436;2023-05-23T00:48:25;101739.66;;;14.49;88.87
73981;BME280;62348;51.412;5.436;2023-05-23T00:50:51;101735.59;;;14.46;88.44
73981;BME280;62348;51.412;5.436;2023-05-23T00:53:17;101745.38;;;14.47;88.12
73981;BME280;62348;51.412;5.436;2023-05-23T00:55:43;101745.38;;;14.47;87.95
73981;BME280;62348;51.412;5.436;2023-05-23T00:58:09;101749.97;;;14.41;87.96
73981;BME280;62348;51.412;5.436;2023-05-23T01:00:35;101740.44;;;14.39;88.31
73981;BME280;62348;51.412;5.436;2023-05-23T01:03:02;101749.97;;;14.41;88.08
73981;BME280;62348;51.412;5.436;2023-05-23T01:05:29;101759.53;;;14.44;87.86
73981;BME280;62348;51.412;5.436;2023-05-23T01:07:55;101757.88;;;14.43;87.58
73981;BME280;62348;51.412;5.436;2023-05-23T01:10:24;101760.03;;;14.41;87.30
73981;BME280;62348;51.412;5.436;2023-05-23T01:15:49;101765.47;;;14.41;86.94
73981;BME280;62348;51.412;5.436;2023-05-23T01:18:17;101764.97;;;14.44;87.41
73981;BME280;62348;51.412;5.436;2023-05-23T01:20:48;101764.41;;;14.42;87.25
73981;BME280;62348;51.412;5.436;2023-05-23T01:23:35;101770.38;;;14.39;86.78
73981;BME280;62348;51.412;5.436;2023-05-23T01:26:17;101768.19;;;14.41;86.50
73981;BME280;62348;51.412;5.436;2023-05-23T01:28:45;101773.06;;;14.34;87.02
73981;BME280;62348;51.412;5.436;2023-05-23T01:31:12;101774.97;;;14.33;87.37
73981;BME280;62348;51.412;5.436;2023-05-23T01:33:39;101783.09;;;14.28;87.00
73981;BME280;62348;51.412;5.436;2023-05-23T01:36:05;101774.91;;;14.28;87.12
73981;BME280;62348;51.412;5.436;2023-05-23T01:38:31;101782.53;;;14.26;86.82
73981;BME280;62348;51.412;5.436;2023-05-23T01:40:57;101779.00;;;14.25;86.07
73981;BME280;62348;51.412;5.436;2023-05-23T01:43:23;101777.88;;;14.21;86.06
73981;BME280;62348;51.412;5.436;2023-05-23T01:45:51;101785.78;;;14.23;86.03
73981;BME280;62348;51.412;5.436;2023-05-23T01:48:20;101793.97;;;14.23;85.45
73981;BME280;62348;51.412;5.436;2023-05-23T01:50:47;101788.50;;;14.23;85.89
73981;BME280;62348;51.412;5.436;2023-05-23T01:53:15;101781.13;;;14.18;85.31
73981;BME280;62348;51.412;5.436;2023-05-23T01:55:41;101789.28;;;14.18;85.52
73981;BME280;62348;51.412;5.436;2023-05-23T01:58:07;101792.84;;;14.24;86.55
73981;BME280;62348;51.412;5.436;2023-05-23T02:00:33;101795.84;;;14.22;87.43
73981;BME280;62348;51.412;5.436;2023-05-23T02:02:58;101794.75;;;14.23;87.13
73981;BME280;62348;51.412;5.436;2023-05-23T02:05:24;101794.47;;;14.20;86.89
73981;BME280;62348;51.412;5.436;2023-05-23T02:07:50;101794.47;;;14.20;86.81
73981;BME280;62348;51.412;5.436;2023-05-23T02:10:15;101799.66;;;14.21;87.05
73981;BME280;62348;51.412;5.436;2023-05-23T02:12:41;101797.44;;;14.18;88.07
73981;BME280;62348;51.412;5.436;2023-05-23T02:15:07;101797.44;;;14.18;86.96
73981;BME280;62348;51.412;5.436;2023-05-23T02:17:32;101810.19;;;14.13;87.32
73981;BME280;62348;51.412;5.436;2023-05-23T02:19:58;101814.00;;;14.12;87.54
73981;BME280;62348;51.412;5.436;2023-05-23T02:22:23;101810.44;;;14.06;87.17
73981;BME280;62348;51.412;5.436;2023-05-23T02:24:50;101806.00;;;14.00;87.75
73981;BME280;62348;51.412;5.436;2023-05-23T02:27:15;101807.44;;;14.08;87.76
73981;BME280;62348;51.412;5.436;2023-05-23T02:29:41;101810.69;;;14.04;87.73
73981;BME280;62348;51.412;5.436;2023-05-23T02:32:06;101815.81;;;14.01;88.22
73981;BME280;62348;51.412;5.436;2023-05-23T02:34:32;101824.75;;;13.96;88.00
73981;BME280;62348;51.412;5.436;2023-05-23T02:36:57;101816.31;;;13.93;88.30
73981;BME280;62348;51.412;5.436;2023-05-23T02:39:22;101817.63;;;13.90;88.42
73981;BME280;62348;51.412;5.436;2023-05-23T02:41:48;101817.13;;;13.93;88.40
73981;BME280;62348;51.412;5.436;2023-05-23T02:44:13;101826.03;;;13.89;88.52
73981;BME280;62348;51.412;5.436;2023-05-23T02:46:39;101816.25;;;13.88;88.80
73981;BME280;62348;51.412;5.436;2023-05-23T02:49:04;101819.47;;;13.84;89.14
73981;BME280;62348;51.412;5.436;2023-05-23T02:51:29;101817.84;;;13.83;89.45
73981;BME280;62348;51.412;5.436;2023-05-23T02:53:56;101823.03;;;13.85;89.67
73981;BME280;62348;51.412;5.436;2023-05-23T02:56:21;101816.75;;;13.84;89.98
73981;BME280;62348;51.412;5.436;2023-05-23T02:58:47;101823.59;;;13.87;89.84
73981;BME280;62348;51.412;5.436;2023-05-23T03:01:12;101813.53;;;13.88;89.55
73981;BME280;62348;51.412;5.436;2023-05-23T03:03:38;101815.94;;;13.84;89.35
73981;BME280;62348;51.412;5.436;2023-05-23T03:06:05;101815.34;;;13.77;89.17
73981;BME280;62348;51.412;5.436;2023-05-23T03:08:31;101812.38;;;13.78;90.11
73981;BME280;62348;51.412;5.436;2023-05-23T03:10:56;101814.53;;;13.76;89.33
73981;BME280;62348;51.412;5.436;2023-05-23T03:13:22;101801.50;;;13.78;89.28
73981;BME280;62348;51.412;5.436;2023-05-23T03:15:47;101809.09;;;13.76;89.18
73981;BME280;62348;51.412;5.436;2023-05-23T03:18:13;101818.31;;;13.75;88.46
73981;BME280;62348;51.412;5.436;2023-05-23T03:20:38;101809.34;;;13.75;88.50
73981;BME280;62348;51.412;5.436;2023-05-23T03:23:04;101811.25;;;13.74;88.55
73981;BME280;62348;51.412;5.436;2023-05-23T03:25:29;101824.59;;;13.76;88.44
73981;BME280;62348;51.412;5.436;2023-05-23T03:27:55;101830.56;;;13.78;88.30
73981;BME280;62348;51.412;5.436;2023-05-23T03:30:20;101828.38;;;13.75;88.36
73981;BME280;62348;51.412;5.436;2023-05-23T03:32:46;101833.50;;;13.71;87.68
73981;BME280;62348;51.412;5.436;2023-05-23T03:35:11;101829.16;;;13.70;87.41
73981;BME280;62348;51.412;5.436;2023-05-23T03:37:36;101832.19;;;13.74;87.42
73981;BME280;62348;51.412;5.436;2023-05-23T03:40:02;101826.13;;;13.66;87.61
73981;BME280;62348;51.412;5.436;2023-05-23T03:42:28;101826.94;;;13.67;87.85
73981;BME280;62348;51.412;5.436;2023-05-23T03:44:53;101838.38;;;13.69;87.78
73981;BME280;62348;51.412;5.436;2023-05-23T03:47:19;101837.81;;;13.67;87.85
73981;BME280;62348;51.412;5.436;2023-05-23T03:49:44;101840.03;;;13.70;87.68
73981;BME280;62348;51.412;5.436;2023-05-23T03:52:10;101832.94;;;13.69;87.89
73981;BME280;62348;51.412;5.436;2023-05-23T03:54:35;101840.59;;;13.72;88.03
73981;BME280;62348;51.412;5.436;2023-05-23T03:57:01;101839.19;;;13.70;88.17
73981;BME280;62348;51.412;5.436;2023-05-23T03:59:27;101838.13;;;13.71;88.79
73981;BME280;62348;51.412;5.436;2023-05-23T04:01:53;101856.88;;;13.72;88.45
73981;BME280;62348;51.412;5.436;2023-05-23T04:04:19;101852.00;;;13.74;88.92
73981;BME280;62348;51.412;5.436;2023-05-23T04:06:45;101846.31;;;13.76;88.17
73981;BME280;62348;51.412;5.436;2023-05-23T04:09:11;101850.63;;;13.72;87.94
73981;BME280;62348;51.412;5.436;2023-05-23T04:11:38;101845.78;;;13.74;89.39
73981;BME280;62348;51.412;5.436;2023-05-23T04:14:03;101847.13;;;13.76;88.53
73981;BME280;62348;51.412;5.436;2023-05-23T04:16:28;101849.59;;;13.78;88.72
73981;BME280;62348;51.412;5.436;2023-05-23T04:18:57;101853.38;;;13.77;88.47
73981;BME280;62348;51.412;5.436;2023-05-23T04:21:23;101866.16;;;13.76;88.31
73981;BME280;62348;51.412;5.436;2023-05-23T04:23:48;101852.81;;;13.75;88.25
73981;BME280;62348;51.412;5.436;2023-05-23T04:26:13;101863.94;;;13.73;87.84
73981;BME280;62348;51.412;5.436;2023-05-23T04:28:39;101861.78;;;13.75;88.15
73981;BME280;62348;51.412;5.436;2023-05-23T04:31:04;101863.69;;;13.75;88.29
73981;BME280;62348;51.412;5.436;2023-05-23T04:33:29;101871.28;;;13.73;89.02
73981;BME280;62348;51.412;5.436;2023-05-23T04:35:55;101872.38;;;13.72;88.42
73981;BME280;62348;51.412;5.436;2023-05-23T04:38:21;101868.00;;;13.71;88.65
73981;BME280;62348;51.412;5.436;2023-05-23T04:40:49;101869.66;;;13.72;89.09
73981;BME280;62348;51.412;5.436;2023-05-23T04:43:16;101874.00;;;13.73;88.69
73981;BME280;62348;51.412;5.436;2023-05-23T04:45:44;101869.13;;;13.75;88.59
73981;BME280;62348;51.412;5.436;2023-05-23T04:48:10;101878.09;;;13.75;88.93
73981;BME280;62348;51.412;5.436;2023-05-23T04:50:37;101874.56;;;13.75;89.43
73981;BME280;62348;51.412;5.436;2023-05-23T04:53:04;101888.97;;;13.75;88.56
73981;BME280;62348;51.412;5.436;2023-05-23T04:55:30;101880.56;;;13.77;88.46
73981;BME280;62348;51.412;5.436;2023-05-23T04:57:56;101886.53;;;13.74;88.84
73981;BME280;62348;51.412;5.436;2023-05-23T05:00:22;101884.06;;;13.72;88.41
73981;BME280;62348;51.412;5.436;2023-05-23T05:02:47;101893.03;;;13.73;88.97
73981;BME280;62348;51.412;5.436;2023-05-23T05:05:13;101892.78;;;13.74;88.21
73981;BME280;62348;51.412;5.436;2023-05-23T05:07:38;101899.28;;;13.73;88.44
73981;BME280;62348;51.412;5.436;2023-05-23T05:10:05;101895.25;;;13.76;88.00
73981;BME280;62348;51.412;5.436;2023-05-23T05:12:30;101893.59;;;13.75;88.08
73981;BME280;62348;51.412;5.436;2023-05-23T05:14:56;101905.56;;;13.74;88.25
73981;BME280;62348;51.412;5.436;2023-05-23T05:17:21;101904.72;;;13.73;88.24
73981;BME280;62348;51.412;5.436;2023-05-23T05:19:47;101915.59;;;13.73;88.10
73981;BME280;62348;51.412;5.436;2023-05-23T05:22:12;101905.00;;;13.72;87.81
73981;BME280;62348;51.412;5.436;2023-05-23T05:24:37;101911.44;;;13.65;87.92
73981;BME280;62348;51.412;5.436;2023-05-23T05:27:05;101915.19;;;13.59;88.44
73981;BME280;62348;51.412;5.436;2023-05-23T05:29:30;101913.28;;;13.60;88.54
73981;BME280;62348;51.412;5.436;2023-05-23T05:31:58;101928.03;;;13.64;88.74
73981;BME280;62348;51.412;5.436;2023-05-23T05:34:25;101922.84;;;13.62;88.48
73981;BME280;62348;51.412;5.436;2023-05-23T05:36:51;101921.72;;;13.58;88.24
73981;BME280;62348;51.412;5.436;2023-05-23T05:39:21;101926.03;;;13.59;88.20
73981;BME280;62348;51.412;5.436;2023-05-23T05:41:47;101926.53;;;13.56;88.28
73981;BME280;62348;51.412;5.436;2023-05-23T05:44:12;101930.09;;;13.57;88.22
73981;BME280;62348;51.412;5.436;2023-05-23T05:46:38;101927.13;;;13.58;88.78
73981;BME280;62348;51.412;5.436;2023-05-23T05:49:03;101932.81;;;13.57;87.87
73981;BME280;62348;51.412;5.436;2023-05-23T05:51:29;101924.59;;;13.52;87.26
73981;BME280;62348;51.412;5.436;2023-05-23T05:53:55;101937.69;;;13.55;87.00
73981;BME280;62348;51.412;5.436;2023-05-23T05:56:21;101939.78;;;13.47;87.07
73981;BME280;62348;51.412;5.436;2023-05-23T05:58:46;101947.03;;;13.42;86.98
73981;BME280;62348;51.412;5.436;2023-05-23T06:01:12;101946.47;;;13.40;86.64
73981;BME280;62348;51.412;5.436;2023-05-23T06:03:38;101944.81;;;13.39;86.56
73981;BME280;62348;51.412;5.436;2023-05-23T06:06:04;101939.91;;;13.36;86.69
73981;BME280;62348;51.412;5.436;2023-05-23T06:08:29;101951.84;;;13.35;86.95
73981;BME280;62348;51.412;5.436;2023-05-23T06:10:55;101949.28;;;13.28;86.90
73981;BME280;62348;51.412;5.436;2023-05-23T06:13:21;101958.50;;;13.27;86.67
73981;BME280;62348;51.412;5.436;2023-05-23T06:15:46;101966.31;;;13.23;86.92
73981;BME280;62348;51.412;5.436;2023-05-23T06:18:11;101961.13;;;13.22;86.91
73981;BME280;62348;51.412;5.436;2023-05-23T06:20:37;101967.34;;;13.17;86.83
73981;BME280;62348;51.412;5.436;2023-05-23T06:23:02;101976.28;;;13.18;86.82
73981;BME280;62348;51.412;5.436;2023-05-23T06:25:30;101973.25;;;13.14;86.97
73981;BME280;62348;51.412;5.436;2023-05-23T06:27:55;101969.47;;;13.15;87.06
73981;BME280;62348;51.412;5.436;2023-05-23T06:30:20;101969.47;;;13.15;86.38
73981;BME280;62348;51.412;5.436;2023-05-23T06:32:47;101975.41;;;13.12;86.32
73981;BME280;62348;51.412;5.436;2023-05-23T06:35:12;101973.44;;;13.07;86.07
73981;BME280;62348;51.412;5.436;2023-05-23T06:37:38;101975.59;;;13.05;86.54
73981;BME280;62348;51.412;5.436;2023-05-23T06:40:07;101983.66;;;13.00;86.61
73981;BME280;62348;51.412;5.436;2023-05-23T06:42:33;101979.38;;;13.04;86.29
73981;BME280;62348;51.412;5.436;2023-05-23T06:44:58;101985.56;;;13.00;86.08
73981;BME280;62348;51.412;5.436;2023-05-23T06:47:24;101985.00;;;12.98;85.95
73981;BME280;62348;51.412;5.436;2023-05-23T06:49:49;101988.03;;;13.01;85.25
73981;BME280;62348;51.412;5.436;2023-05-23T06:52:15;102001.59;;;13.01;85.21
73981;BME280;62348;51.412;5.436;2023-05-23T06:54:40;102007.28;;;13.00;85.07
73981;BME280;62348;51.412;5.436;2023-05-23T06:57:06;101999.88;;;12.95;84.49
73981;BME280;62348;51.412;5.436;2023-05-23T06:59:31;101999.38;;;12.98;85.45
73981;BME280;62348;51.412;5.436;2023-05-23T07:01:57;102017.28;;;12.99;84.00
73981;BME280;62348;51.412;5.436;2023-05-23T07:04:22;102017.25;;;12.94;84.20
73981;BME280;62348;51.412;5.436;2023-05-23T07:06:47;102015.56;;;12.93;84.33
73981;BME280;62348;51.412;5.436;2023-05-23T07:09:13;102010.38;;;12.92;84.65
73981;BME280;62348;51.412;5.436;2023-05-23T07:11:38;102012.28;;;12.91;84.25
73981;BME280;62348;51.412;5.436;2023-05-23T07:14:05;102019.53;;;12.85;84.38
73981;BME280;62348;51.412;5.436;2023-05-23T07:16:32;102027.44;;;12.87;84.93
73981;BME280;62348;51.412;5.436;2023-05-23T07:18:57;102029.47;;;12.80;85.17
73981;BME280;62348;51.412;5.436;2023-05-23T07:21:23;102033.00;;;12.80;85.32
73981;BME280;62348;51.412;5.436;2023-05-23T07:23:48;102030.56;;;12.79;85.75
73981;BME280;62348;51.412;5.436;2023-05-23T07:26:13;102036.81;;;12.79;84.63
73981;BME280;62348;51.412;5.436;2023-05-23T07:28:39;102029.16;;;12.76;83.29
73981;BME280;62348;51.412;5.436;2023-05-23T07:31:04;102031.28;;;12.74;83.58
73981;BME280;62348;51.412;5.436;2023-05-23T07:33:30;102033.91;;;12.69;82.98
73981;BME280;62348;51.412;5.436;2023-05-23T07:35:57;102035.09;;;12.73;83.34
73981;BME280;62348;51.412;5.436;2023-05-23T07:38:23;102039.28;;;12.81;82.08
73981;BME280;62348;51.412;5.436;2023-05-23T07:40:50;102040.09;;;12.81;80.94
73981;BME280;62348;51.412;5.436;2023-05-23T07:43:15;102040.69;;;12.83;79.75
73981;BME280;62348;51.412;5.436;2023-05-23T07:45:41;102038.53;;;12.85;77.88
73981;BME280;62348;51.412;5.436;2023-05-23T07:48:07;102033.91;;;12.86;76.44
73981;BME280;62348;51.412;5.436;2023-05-23T07:50:32;102052.78;;;12.93;77.82
73981;BME280;62348;51.412;5.436;2023-05-23T07:52:58;102050.47;;;13.01;78.14
73981;BME280;62348;51.412;5.436;2023-05-23T07:55:23;102052.44;;;13.06;76.60
73981;BME280;62348;51.412;5.436;2023-05-23T07:57:49;102056.53;;;13.25;77.49
73981;BME280;62348;51.412;5.436;2023-05-23T08:00:15;102056.44;;;13.37;74.53
73981;BME280;62348;51.412;5.436;2023-05-23T08:02:40;102052.09;;;13.36;73.35
73981;BME280;62348;51.412;5.436;2023-05-23T08:05:06;102062.72;;;13.38;74.01
73981;BME280;62348;51.412;5.436;2023-05-23T08:07:32;102064.19;;;13.45;73.05
73981;BME280;62348;51.412;5.436;2023-05-23T08:09:58;102059.31;;;13.47;71.37
73981;BME280;62348;51.412;5.436;2023-05-23T08:12:23;102067.56;;;13.53;72.12
73981;BME280;62348;51.412;5.436;2023-05-23T08:14:48;102059.97;;;13.55;71.57
73981;BME280;62348;51.412;5.436;2023-05-23T08:17:14;102067.84;;;13.56;71.85
73981;BME280;62348;51.412;5.436;2023-05-23T08:19:40;102078.16;;;13.54;71.69
73981;BME280;62348;51.412;5.436;2023-05-23T08:22:06;102071.00;;;13.48;72.67
73981;BME280;62348;51.412;5.436;2023-05-23T08:24:31;102074.28;;;13.50;72.71
73981;BME280;62348;51.412;5.436;2023-05-23T08:26:58;102081.72;;;13.55;72.17
73981;BME280;62348;51.412;5.436;2023-05-23T08:29:24;102068.59;;;13.52;70.78
73981;BME280;62348;51.412;5.436;2023-05-23T08:31:49;102068.44;;;13.58;71.34
73981;BME280;62348;51.412;5.436;2023-05-23T08:34:15;102079.59;;;13.62;71.92
73981;BME280;62348;51.412;5.436;2023-05-23T08:36:40;102082.31;;;13.62;70.86
73981;BME280;62348;51.412;5.436;2023-05-23T08:39:07;102085.38;;;13.65;73.08
73981;BME280;62348;51.412;5.436;2023-05-23T08:41:33;102075.69;;;13.75;72.79
73981;BME280;62348;51.412;5.436;2023-05-23T08:43:59;102073.00;;;13.75;71.39
73981;BME280;62348;51.412;5.436;2023-05-23T08:46:25;102080.91;;;13.76;71.77
73981;BME280;62348;51.412;5.436;2023-05-23T08:48:53;102078.66;;;13.73;71.72
73981;BME280;62348;51.412;5.436;2023-05-23T08:51:24;102087.47;;;13.80;72.60
73981;BME280;62348;51.412;5.436;2023-05-23T08:53:50;102084.75;;;13.80;71.99
73981;BME280;62348;51.412;5.436;2023-05-23T08:56:18;102089.38;;;13.80;71.21
73981;BME280;62348;51.412;5.436;2023-05-23T08:58:44;102083.63;;;13.76;71.46
73981;BME280;62348;51.412;5.436;2023-05-23T09:01:12;102080.00;;;13.71;71.08
73981;BME280;62348;51.412;5.436;2023-05-23T09:03:39;102087.59;;;13.69;71.67
73981;BME280;62348;51.412;5.436;2023-05-23T09:06:07;102089.06;;;13.76;71.67
73981;BME280;62348;51.412;5.436;2023-05-23T09:08:33;102082.56;;;13.77;71.54
73981;BME280;62348;51.412;5.436;2023-05-23T09:10:59;102088.81;;;13.78;71.80
73981;BME280;62348;51.412;5.436;2023-05-23T09:13:28;102088.00;;;13.77;71.65
73981;BME280;62348;51.412;5.436;2023-05-23T09:16:05;102095.13;;;13.83;71.89
73981;BME280;62348;51.412;5.436;2023-05-23T09:18:41;102096.03;;;13.89;73.53
73981;BME280;62348;51.412;5.436;2023-05-23T09:21:13;102103.66;;;13.92;72.26
73981;BME280;62348;51.412;5.436;2023-05-23T09:23:39;102105.81;;;13.90;72.31
73981;BME280;62348;51.412;5.436;2023-05-23T09:26:10;102102.84;;;13.92;73.19
73981;BME280;62348;51.412;5.436;2023-05-23T09:28:38;102111.06;;;13.97;73.53
73981;BME280;62348;51.412;5.436;2023-05-23T09:31:05;102115.59;;;14.13;72.15
73981;BME280;62348;51.412;5.436;2023-05-23T09:36:02;102111.13;;;14.24;71.60
73981;BME280;62348;51.412;5.436;2023-05-23T09:38:28;102113.81;;;14.24;72.10
73981;BME280;62348;51.412;5.436;2023-05-23T09:40:53;102116.47;;;14.19;71.46
73981;BME280;62348;51.412;5.436;2023-05-23T09:43:20;102116.75;;;14.17;72.40
73981;BME280;62348;51.412;5.436;2023-05-23T09:45:46;102123.75;;;14.13;71.88
73981;BME280;62348;51.412;5.436;2023-05-23T09:48:11;102117.47;;;14.08;71.91
73981;BME280;62348;51.412;5.436;2023-05-23T09:50:38;102113.97;;;14.12;71.96
73981;BME280;62348;51.412;5.436;2023-05-23T09:53:03;102111.91;;;14.24;69.31
73981;BME280;62348;51.412;5.436;2023-05-23T09:55:29;102124.84;;;14.34;68.94
73981;BME280;62348;51.412;5.436;2023-05-23T09:57:57;102116.47;;;14.41;68.10
73981;BME280;62348;51.412;5.436;2023-05-23T10:00:23;102121.97;;;14.46;68.32
73981;BME280;62348;51.412;5.436;2023-05-23T10:03:13;102120.38;;;14.50;68.24
73981;BME280;62348;51.412;5.436;2023-05-23T10:05:45;102117.03;;;14.43;66.04
73981;BME280;62348;51.412;5.436;2023-05-23T10:08:39;102119.81;;;14.48;66.72
73981;BME280;62348;51.412;5.436;2023-05-23T10:13:45;102127.97;;;14.48;64.87
73981;BME280;62348;51.412;5.436;2023-05-23T10:16:18;102121.91;;;14.63;65.73
73981;BME280;62348;51.412;5.436;2023-05-23T10:18:44;102113.69;;;14.58;63.35
73981;BME280;62348;51.412;5.436;2023-05-23T10:21:18;102119.13;;;14.58;63.75
73981;BME280;62348;51.412;5.436;2023-05-23T10:23:46;102118.34;;;14.62;63.91
73981;BME280;62348;51.412;5.436;2023-05-23T10:26:12;102113.28;;;14.71;63.87
73981;BME280;62348;51.412;5.436;2023-05-23T10:28:39;102117.19;;;14.80;62.39
73981;BME280;62348;51.412;5.436;2023-05-23T10:31:06;102121.09;;;14.95;63.44
73981;BME280;62348;51.412;5.436;2023-05-23T10:33:35;102103.91;;;15.21;62.73
73981;BME280;62348;51.412;5.436;2023-05-23T10:36:13;102104.88;;;15.48;60.73
73981;BME280;62348;51.412;5.436;2023-05-23T10:41:22;102113.53;;;15.82;59.99
73981;BME280;62348;51.412;5.436;2023-05-23T10:46:21;102125.97;;;16.15;58.84
73981;BME280;62348;51.412;5.436;2023-05-23T10:48:47;102113.97;;;16.11;58.01
73981;BME280;62348;51.412;5.436;2023-05-23T10:51:13;102105.72;;;16.01;57.52
73981;BME280;62348;51.412;5.436;2023-05-23T10:53:44;102111.16;;;15.91;57.19
73981;BME280;62348;51.412;5.436;2023-05-23T10:56:18;102108.69;;;15.89;57.95
73981;BME280;62348;51.412;5.436;2023-05-23T10:58:45;102112.00;;;16.07;58.66
73981;BME280;62348;51.412;5.436;2023-05-23T11:01:14;102104.47;;;16.24;57.52
73981;BME280;62348;51.412;5.436;2023-05-23T11:06:40;102105.31;;;16.40;56.84
73981;BME280;62348;51.412;5.436;2023-05-23T11:09:11;102105.31;;;16.30;56.00
73981;BME280;62348;51.412;5.436;2023-05-23T11:14:34;102113.53;;;16.55;56.54
73981;BME280;62348;51.412;5.436;2023-05-23T11:17:16;102109.19;;;16.70;55.79
73981;BME280;62348;51.412;5.436;2023-05-23T11:20:02;102107.03;;;16.77;56.76
73981;BME280;62348;51.412;5.436;2023-05-23T11:22:32;102098.81;;;16.72;52.94
73981;BME280;62348;51.412;5.436;2023-05-23T11:24:58;102101.81;;;16.60;53.22
73981;BME280;62348;51.412;5.436;2023-05-23T11:30:17;102108.34;;;16.69;55.14
73981;BME280;62348;51.412;5.436;2023-05-23T11:32:52;102103.19;;;16.68;52.88
73981;BME280;62348;51.412;5.436;2023-05-23T11:35:19;102108.34;;;16.69;52.54
73981;BME280;62348;51.412;5.436;2023-05-23T11:37:45;102111.13;;;16.79;51.54
73981;BME280;62348;51.412;5.436;2023-05-23T11:40:46;102106.50;;;16.90;53.97
73981;BME280;62348;51.412;5.436;2023-05-23T11:43:13;102116.06;;;16.88;50.71
73981;BME280;62348;51.412;5.436;2023-05-23T11:45:41;102107.88;;;16.88;49.71
73981;BME280;62348;51.412;5.436;2023-05-23T11:48:07;102107.59;;;16.94;51.03
73981;BME280;62348;51.412;5.436;2023-05-23T11:50:34;102108.41;;;16.95;49.82
73981;BME280;62348;51.412;5.436;2023-05-23T11:53:07;102102.41;;;17.03;50.86
73981;BME280;62348;51.412;5.436;2023-05-23T11:55:32;102110.88;;;17.07;50.74
73981;BME280;62348;51.412;5.436;2023-05-23T11:57:59;102126.72;;;17.15;51.70
73981;BME280;62348;51.412;5.436;2023-05-23T12:00:25;102109.22;;;17.16;52.34
73981;BME280;62348;51.412;5.436;2023-05-23T12:02:50;102118.78;;;17.18;52.16
73981;BME280;62348;51.412;5.436;2023-05-23T12:05:16;102117.16;;;17.23;51.97
73981;BME280;62348;51.412;5.436;2023-05-23T12:07:45;102118.53;;;17.15;51.12
73981;BME280;62348;51.412;5.436;2023-05-23T12:10:13;102116.34;;;17.17;51.29
73981;BME280;62348;51.412;5.436;2023-05-23T12:12:40;102117.97;;;17.13;49.74
73981;BME280;62348;51.412;5.436;2023-05-23T12:15:06;102130.81;;;17.17;50.15
73981;BME280;62348;51.412;5.436;2023-05-23T12:17:31;102120.44;;;17.20;49.17
73981;BME280;62348;51.412;5.436;2023-05-23T12:19:57;102113.63;;;17.17;49.61
73981;BME280;62348;51.412;5.436;2023-05-23T12:22:23;102122.63;;;17.02;48.98
73981;BME280;62348;51.412;5.436;2023-05-23T12:24:52;102120.16;;;16.85;49.56
73981;BME280;62348;51.412;5.436;2023-05-23T12:27:17;102117.38;;;16.75;49.32
73981;BME280;62348;51.412;5.436;2023-05-23T12:29:49;102126.66;;;16.69;50.06
73981;BME280;62348;51.412;5.436;2023-05-23T12:32:16;102125.00;;;16.57;50.09
73981;BME280;62348;51.412;5.436;2023-05-23T12:34:41;102126.38;;;16.60;50.15
73981;BME280;62348;51.412;5.436;2023-05-23T12:37:07;102125.56;;;16.65;49.77
73981;BME280;62348;51.412;5.436;2023-05-23T12:39:36;102124.22;;;16.62;49.44
73981;BME280;62348;51.412;5.436;2023-05-23T12:42:08;102131.84;;;16.55;48.97
73981;BME280;62348;51.412;5.436;2023-05-23T12:44:34;102130.44;;;16.47;48.85
73981;BME280;62348;51.412;5.436;2023-05-23T12:47:02;102132.13;;;16.58;49.36
73981;BME280;62348;51.412;5.436;2023-05-23T12:49:27;102125.59;;;16.70;49.87
73981;BME280;62348;51.412;5.436;2023-05-23T12:51:52;102140.31;;;16.69;49.34
73981;BME280;62348;51.412;5.436;2023-05-23T12:54:18;102146.31;;;16.71;50.14
73981;BME280;62348;51.412;5.436;2023-05-23T12:56:43;102139.19;;;16.59;50.37
73981;BME280;62348;51.412;5.436;2023-05-23T12:59:09;102151.22;;;16.64;51.33
73981;BME280;62348;51.412;5.436;2023-05-23T13:01:34;102144.97;;;16.68;51.76
73981;BME280;62348;51.412;5.436;2023-05-23T13:04:00;102142.22;;;16.68;51.31
73981;BME280;62348;51.412;5.436;2023-05-23T13:06:26;102149.59;;;16.63;47.77
73981;BME280;62348;51.412;5.436;2023-05-23T13:08:52;102145.47;;;16.50;47.07
73981;BME280;62348;51.412;5.436;2023-05-23T13:11:19;102150.38;;;16.53;47.26